createdAt,value
2022-11-11T00:02:07.310Z,101962.84
2022-11-11T00:05:28.303Z,101962.78
2022-11-11T00:08:49.630Z,101967.91
2022-11-11T00:12:10.569Z,101970.56
2022-11-11T00:15:31.693Z,101980.00
2022-11-11T00:19:10.844Z,101986.03
2022-11-11T00:22:50.157Z,101993.00
2022-11-11T00:26:37.970Z,101987.72
2022-11-11T00:29:54.993Z,101991.31
2022-11-11T00:33:15.793Z,102000.91
2022-11-11T00:36:36.397Z,101996.59
2022-11-11T00:39:57.163Z,101988.88
2022-11-11T00:43:17.997Z,102005.13
2022-11-11T00:46:57.133Z,101994.91
2022-11-11T00:50:42.506Z,101992.38
2022-11-11T00:54:03.441Z,101990.16
2022-11-11T00:57:24.235Z,101995.47
2022-11-11T01:00:45.513Z,101995.69
2022-11-11T01:04:06.559Z,101999.16
2022-11-11T01:07:27.885Z,102003.50
2022-11-11T01:10:49.719Z,101996.75
2022-11-11T01:14:11.106Z,101994.22
2022-11-11T01:17:32.423Z,101993.41
2022-11-11T01:20:59.782Z,101988.34
2022-11-11T01:24:21.230Z,101991.75
2022-11-11T01:27:42.408Z,101995.19
2022-11-11T01:31:09.189Z,101998.63
2022-11-11T01:34:30.331Z,102000.41
2022-11-11T01:37:51.427Z,102010.75
2022-11-11T01:41:32.967Z,102012.47
2022-11-11T01:44:54.331Z,102011.66
2022-11-11T01:49:02.040Z,102017.66
2022-11-11T01:52:31.983Z,102021.19
2022-11-11T01:55:54.173Z,102021.22
2022-11-11T01:59:17.930Z,102022.13
2022-11-11T02:02:43.624Z,102028.06
2022-11-11T02:06:04.897Z,102031.50
2022-11-11T02:09:26.698Z,102029.75
2022-11-11T02:13:06.108Z,102025.47
2022-11-11T02:16:27.490Z,102022.03
2022-11-11T02:19:57.953Z,102026.28
2022-11-11T02:23:37.592Z,102019.44
2022-11-11T02:27:00.226Z,102039.09
2022-11-11T02:30:21.745Z,102039.97
2022-11-11T02:33:42.821Z,102031.41
2022-11-11T02:37:06.787Z,102039.97
2022-11-11T02:40:37.254Z,102040.84
2022-11-11T02:43:58.141Z,102043.44
2022-11-11T02:47:19.186Z,102042.59
2022-11-11T02:50:40.039Z,102047.75
2022-11-11T02:54:01.277Z,102050.31
2022-11-11T02:57:23.013Z,102045.22
2022-11-11T03:00:44.353Z,102053.78
2022-11-11T03:04:06.246Z,102053.84
2022-11-11T03:07:27.479Z,102056.41
2022-11-11T03:10:48.818Z,102053.00
2022-11-11T03:14:10.260Z,102054.69
2022-11-11T03:17:40.144Z,102052.97
2022-11-11T03:21:54.388Z,102069.22
2022-11-11T03:25:06.502Z,102067.53
2022-11-11T03:28:27.583Z,102069.28
2022-11-11T03:31:50.719Z,102076.16
2022-11-11T03:35:11.561Z,102083.00
2022-11-11T03:38:32.647Z,102080.44
2022-11-11T03:41:53.729Z,102083.84
2022-11-11T03:45:14.842Z,102088.97
2022-11-11T03:48:35.779Z,102084.69
2022-11-11T03:51:56.518Z,102083.84
2022-11-11T03:55:17.493Z,102088.09
2022-11-11T03:58:38.241Z,102094.03
2022-11-11T04:02:17.387Z,102099.09
2022-11-11T04:05:56.817Z,102090.53
2022-11-11T04:09:36.076Z,102099.06
2022-11-11T04:13:18.104Z,102094.75
2022-11-11T04:16:39.143Z,102096.53
2022-11-11T04:20:18.342Z,102103.47
2022-11-11T04:23:39.313Z,102109.88
2022-11-11T04:27:02.343Z,102109.50
2022-11-11T04:30:23.058Z,102114.84
2022-11-11T04:33:43.772Z,102110.69
2022-11-11T04:37:04.655Z,102111.47
2022-11-11T04:40:43.868Z,102124.28
2022-11-11T04:44:23.998Z,102119.94
2022-11-11T04:47:53.406Z,102124.31
2022-11-11T04:51:14.490Z,102128.56
2022-11-11T04:54:55.148Z,102126.75
2022-11-11T04:58:18.027Z,102125.81
2022-11-11T05:01:57.629Z,102126.50
2022-11-11T05:05:18.329Z,102132.84
2022-11-11T05:08:56.431Z,102138.13
2022-11-11T05:12:17.670Z,102134.06
2022-11-11T05:15:58.965Z,102136.56
2022-11-11T05:19:38.722Z,102135.06
2022-11-11T05:22:59.452Z,102140.28
2022-11-11T05:26:20.435Z,102143.41
2022-11-11T05:29:41.460Z,102143.44
2022-11-11T05:33:02.944Z,102145.03
2022-11-11T05:36:24.102Z,102151.25
2022-11-11T05:39:45.900Z,102147.00
2022-11-11T05:43:06.915Z,102152.66
2022-11-11T05:46:28.051Z,102151.69
2022-11-11T05:49:48.795Z,102155.50
2022-11-11T05:53:09.717Z,102153.91
2022-11-11T05:56:30.736Z,102166.91
2022-11-11T05:59:51.657Z,102170.28
2022-11-11T06:03:13.185Z,102172.00
2022-11-11T06:06:35.843Z,102179.13
2022-11-11T06:10:17.299Z,102184.91
2022-11-11T06:13:38.476Z,102173.13
2022-11-11T06:16:59.549Z,102177.88
2022-11-11T06:20:20.942Z,102181.41
2022-11-11T06:23:42.029Z,102181.31
2022-11-11T06:27:02.811Z,102182.19
2022-11-11T06:30:51.816Z,102188.94
2022-11-11T06:34:04.758Z,102193.25
2022-11-11T06:37:25.833Z,102201.78
2022-11-11T06:40:47.015Z,102201.72
2022-11-11T06:44:07.938Z,102203.75
2022-11-11T06:47:29.125Z,102210.63
2022-11-11T06:50:50.986Z,102216.59
2022-11-11T06:54:12.045Z,102215.69
2022-11-11T06:57:33.845Z,102216.50
2022-11-11T07:00:54.823Z,102218.06
2022-11-11T07:04:16.266Z,102225.00
2022-11-11T07:07:37.715Z,102235.22
2022-11-11T07:11:03.484Z,102239.34
2022-11-11T07:14:28.233Z,102252.97
2022-11-11T07:17:49.165Z,102244.19
2022-11-11T07:21:09.961Z,102250.81
2022-11-11T07:24:30.932Z,102251.47
2022-11-11T07:27:57.804Z,102256.50
2022-11-11T07:31:20.206Z,102250.31
2022-11-11T07:34:41.448Z,102267.16
2022-11-11T07:38:03.196Z,102266.13
2022-11-11T07:41:24.592Z,102254.66
2022-11-11T07:44:49.330Z,102262.28
2022-11-11T07:48:11.046Z,102258.09
2022-11-11T07:51:32.400Z,102266.47
2022-11-11T07:54:53.601Z,102264.59
2022-11-11T07:58:14.779Z,102263.63
2022-11-11T08:01:36.573Z,102264.41
2022-11-11T08:04:58.178Z,102268.72
2022-11-11T08:08:25.475Z,102265.31
2022-11-11T08:12:05.817Z,102255.75
2022-11-11T08:15:27.083Z,102253.22
2022-11-11T08:18:48.493Z,102251.53
2022-11-11T08:22:10.014Z,102254.22
2022-11-11T08:25:32.003Z,102254.34
2022-11-11T08:28:53.773Z,102263.00
2022-11-11T08:32:15.325Z,102267.31
2022-11-11T08:35:36.470Z,102264.75
2022-11-11T08:38:57.814Z,102266.22
2022-11-11T08:42:19.193Z,102260.25
2022-11-11T08:45:40.635Z,102269.88
2022-11-11T08:49:02.449Z,102272.38
2022-11-11T08:52:23.610Z,102262.81
2022-11-11T08:55:45.412Z,102255.75
2022-11-11T08:59:06.822Z,102261.72
2022-11-11T09:02:28.050Z,102269.19
2022-11-11T09:05:49.391Z,102281.03
2022-11-11T09:09:10.596Z,102280.44
2022-11-11T09:12:33.298Z,102280.75
2022-11-11T09:15:55.327Z,102275.38
2022-11-11T09:19:16.145Z,102270.59
2022-11-11T09:22:43.263Z,102270.38
2022-11-11T09:26:04.350Z,102269.56
2022-11-11T09:29:25.543Z,102262.31
2022-11-11T09:33:12.731Z,102271.31
2022-11-11T09:36:39.427Z,102267.34
2022-11-11T09:40:01.466Z,102269.44
2022-11-11T09:43:29.966Z,102254.56
2022-11-11T09:47:39.955Z,102240.47
2022-11-11T09:51:05.618Z,102235.19
2022-11-11T09:54:50.440Z,102232.16
2022-11-11T09:58:35.047Z,102229.19
2022-11-11T10:01:59.606Z,102228.94
2022-11-11T10:05:31.104Z,102232.03
2022-11-11T10:09:02.672Z,102225.06
2022-11-11T10:12:43.371Z,102223.53
2022-11-11T10:16:26.245Z,102208.44
2022-11-11T10:20:14.235Z,102197.31
2022-11-11T10:23:37.699Z,102200.00
2022-11-11T10:27:04.866Z,102204.38
2022-11-11T10:30:32.036Z,102199.97
2022-11-11T10:34:02.955Z,102196.28
2022-11-11T10:37:31.402Z,102190.88
2022-11-11T10:40:59.780Z,102193.06
2022-11-11T10:44:27.729Z,102196.19
2022-11-11T10:48:07.602Z,102189.34
2022-11-11T10:51:37.191Z,102171.97
2022-11-11T10:55:24.080Z,102188.00
2022-11-11T10:58:48.344Z,102186.38
2022-11-11T11:02:23.648Z,102200.28
2022-11-11T11:06:12.364Z,102194.00
2022-11-11T11:10:11.077Z,102185.38
2022-11-11T11:13:55.242Z,102182.19
2022-11-11T11:17:47.027Z,102180.09
2022-11-11T11:21:21.706Z,102183.88
2022-11-11T11:25:20.434Z,102178.41
2022-11-11T11:29:46.841Z,102185.13
2022-11-11T11:33:15.400Z,102198.06
2022-11-11T11:36:46.607Z,102198.44
2022-11-11T11:40:15.077Z,102196.19
2022-11-11T11:43:48.123Z,102195.41
2022-11-11T11:47:29.537Z,102201.16
2022-11-11T11:50:58.926Z,102201.84
2022-11-11T11:54:50.933Z,102197.13
2022-11-11T11:58:47.036Z,102194.47
2022-11-11T12:02:57.349Z,102187.69
2022-11-11T12:07:29.343Z,102176.34
2022-11-11T12:11:24.476Z,102182.50
2022-11-11T12:15:29.350Z,102172.72
2022-11-11T12:20:09.020Z,102173.13
2022-11-11T12:24:10.378Z,102166.44
2022-11-11T12:28:02.678Z,102149.06
2022-11-11T12:31:36.840Z,102152.78
2022-11-11T12:35:42.456Z,102159.31
2022-11-11T12:43:54.855Z,102151.78
2022-11-11T12:47:43.769Z,102165.16
2022-11-11T12:51:59.559Z,102159.47
2022-11-11T12:55:32.807Z,102159.66
2022-11-11T13:00:18.600Z,102165.41
2022-11-11T13:08:32.000Z,102172.44
2022-11-11T13:16:28.319Z,102164.06
2022-11-11T13:20:04.961Z,102168.41
2022-11-11T13:24:27.732Z,102160.81
2022-11-11T13:28:49.532Z,102158.13
2022-11-11T13:32:31.576Z,102157.06
2022-11-11T13:36:24.741Z,102151.25
2022-11-11T13:39:51.969Z,102145.25
2022-11-11T13:43:34.173Z,102136.72
2022-11-11T13:47:02.879Z,102142.28
2022-11-11T13:50:36.352Z,102132.56
2022-11-11T13:53:59.582Z,102133.56
2022-11-11T13:57:23.774Z,102141.88
2022-11-11T14:00:44.764Z,102138.44
2022-11-11T14:04:08.342Z,102139.63
2022-11-11T14:07:57.514Z,102124.50
2022-11-11T14:11:24.254Z,102121.44
2022-11-11T14:14:50.443Z,102119.31
2022-11-11T14:18:32.003Z,102121.44
2022-11-11T14:22:16.910Z,102121.00
2022-11-11T14:25:37.751Z,102128.50
2022-11-11T14:29:03.775Z,102133.13
2022-11-11T14:32:38.242Z,102125.69
2022-11-11T14:36:07.025Z,102126.78
2022-11-11T14:39:45.079Z,102134.91
2022-11-11T14:43:41.680Z,102130.06
2022-11-11T14:47:02.630Z,102123.59
2022-11-11T14:50:32.408Z,102107.84
2022-11-11T14:53:54.054Z,102126.84
2022-11-11T14:57:30.626Z,102116.41
2022-11-11T15:01:03.686Z,102128.81
2022-11-11T15:04:26.836Z,102129.03
2022-11-11T15:08:00.249Z,102125.34
2022-11-11T15:11:37.012Z,102131.75
2022-11-11T15:15:25.893Z,102138.94
2022-11-11T15:18:54.769Z,102139.53
2022-11-11T15:22:51.180Z,102138.47
2022-11-11T15:26:47.346Z,102138.31
2022-11-11T15:30:19.145Z,102136.59
2022-11-11T15:33:59.482Z,102140.31
2022-11-11T15:37:22.648Z,102142.09
2022-11-11T15:40:49.857Z,102135.75
2022-11-11T15:44:32.494Z,102144.63
2022-11-11T15:47:54.330Z,102145.78
2022-11-11T15:51:38.758Z,102147.25
2022-11-11T15:55:02.249Z,102154.50
2022-11-11T15:58:26.398Z,102145.50
2022-11-11T16:01:47.765Z,102136.19
2022-11-11T16:05:22.950Z,102138.75
2022-11-11T16:08:53.580Z,102136.00
2022-11-11T16:12:24.517Z,102124.69
2022-11-11T16:15:56.918Z,102133.66
2022-11-11T16:19:26.016Z,102138.75
2022-11-11T16:22:48.850Z,102136.53
2022-11-11T16:26:10.708Z,102144.16
2022-11-11T16:29:38.876Z,102128.50
2022-11-11T16:32:59.834Z,102119.53
2022-11-11T16:36:20.993Z,102120.59
2022-11-11T16:39:43.487Z,102131.34
2022-11-11T16:43:22.721Z,102135.63
2022-11-11T16:46:44.108Z,102145.44
2022-11-11T16:50:10.740Z,102138.78
2022-11-11T16:53:36.023Z,102138.41
2022-11-11T16:56:59.567Z,102141.66
2022-11-11T17:00:24.229Z,102131.69
2022-11-11T17:03:54.388Z,102134.34
2022-11-11T17:07:35.795Z,102147.25
2022-11-11T17:10:56.903Z,102140.78
2022-11-11T17:14:18.044Z,102140.13
2022-11-11T17:17:40.677Z,102144.63
2022-11-11T17:21:02.570Z,102141.31
2022-11-11T17:24:23.834Z,102127.63
2022-11-11T17:27:45.345Z,102143.09
2022-11-11T17:31:08.695Z,102138.94
2022-11-11T17:34:29.889Z,102133.09
2022-11-11T17:37:51.157Z,102126.03
2022-11-11T17:41:15.682Z,102126.13
2022-11-11T17:44:36.810Z,102121.06
2022-11-11T17:47:57.808Z,102115.03
2022-11-11T17:51:19.284Z,102117.84
2022-11-11T17:54:40.325Z,102120.44
2022-11-11T17:58:01.634Z,102114.56
2022-11-11T18:01:22.950Z,102100.97
2022-11-11T18:04:44.087Z,102106.16
2022-11-11T18:08:05.586Z,102108.78
2022-11-11T18:11:26.330Z,102107.00
2022-11-11T18:14:47.109Z,102105.22
2022-11-11T18:18:08.159Z,102091.72
2022-11-11T18:21:29.619Z,102096.06
2022-11-11T18:24:50.895Z,102096.94
2022-11-11T18:28:11.924Z,102100.34
2022-11-11T18:31:33.833Z,102101.34
2022-11-11T18:34:54.712Z,102104.75
2022-11-11T18:38:15.811Z,102102.19
2022-11-11T18:41:37.031Z,102102.31
2022-11-11T18:44:58.368Z,102116.97
2022-11-11T18:48:19.684Z,102118.72
2022-11-11T18:51:41.613Z,102127.31
2022-11-11T18:55:02.769Z,102129.78
2022-11-11T18:58:24.074Z,102126.34
2022-11-11T19:01:47.284Z,102136.59
2022-11-11T19:05:12.048Z,102141.78
2022-11-11T19:08:35.361Z,102150.41
2022-11-11T19:11:56.898Z,102143.69
2022-11-11T19:15:18.273Z,102148.06
2022-11-11T19:18:40.210Z,102149.00
2022-11-11T19:22:01.648Z,102149.84
2022-11-11T19:25:22.598Z,102145.59
2022-11-11T19:28:43.700Z,102140.41
2022-11-11T19:32:05.508Z,102148.13
2022-11-11T19:35:27.007Z,102149.03
2022-11-11T19:38:48.773Z,102153.31
2022-11-11T19:42:10.299Z,102149.13
2022-11-11T19:45:36.635Z,102143.94
2022-11-11T19:48:59.545Z,102161.19
2022-11-11T19:52:20.597Z,102146.56
2022-11-11T19:55:41.848Z,102147.44
2022-11-11T19:59:03.536Z,102153.47
2022-11-11T20:02:24.289Z,102145.78
2022-11-11T20:05:45.133Z,102151.78
2022-11-11T20:09:07.776Z,102157.78
2022-11-11T20:12:28.696Z,102153.44
2022-11-11T20:15:49.619Z,102159.50
2022-11-11T20:19:10.847Z,102153.50
2022-11-11T20:22:31.786Z,102146.47
2022-11-11T20:25:54.114Z,102148.28
2022-11-11T20:29:15.598Z,102142.06
2022-11-11T20:32:36.663Z,102145.56
2022-11-11T20:36:02.188Z,102144.75
2022-11-11T20:39:23.474Z,102144.84
2022-11-11T20:42:44.582Z,102142.06
2022-11-11T20:46:25.956Z,102129.22
2022-11-11T20:49:47.651Z,102142.19
2022-11-11T20:53:08.358Z,102144.09
2022-11-11T20:56:29.616Z,102138.25
2022-11-11T20:59:50.751Z,102141.72
2022-11-11T21:03:11.972Z,102137.53
2022-11-11T21:06:34.933Z,102139.34
2022-11-11T21:09:56.146Z,102131.69
2022-11-11T21:13:17.644Z,102141.22
2022-11-11T21:16:38.833Z,102139.53
2022-11-11T21:20:00.020Z,102135.31
2022-11-11T21:23:21.271Z,102142.16
2022-11-11T21:26:42.286Z,102140.47
2022-11-11T21:30:03.513Z,102140.53
2022-11-11T21:33:24.852Z,102136.25
2022-11-11T21:36:46.034Z,102135.47
2022-11-11T21:40:07.721Z,102132.09
2022-11-11T21:43:28.711Z,102128.66
2022-11-11T21:46:49.722Z,102133.81
2022-11-11T21:50:10.865Z,102132.97
2022-11-11T21:53:32.378Z,102141.53
2022-11-11T21:56:54.606Z,102139.78
2022-11-11T22:00:15.849Z,102132.13
2022-11-11T22:03:38.449Z,102121.94
2022-11-11T22:06:59.343Z,102139.94
2022-11-11T22:10:20.156Z,102133.97
2022-11-11T22:13:45.227Z,102127.13
2022-11-11T22:17:06.406Z,102128.00
2022-11-11T22:20:27.208Z,102117.78
2022-11-11T22:23:52.816Z,102127.22
2022-11-11T22:27:13.990Z,102114.34
2022-11-11T22:30:34.816Z,102116.84
2022-11-11T22:34:00.153Z,102120.25
2022-11-11T22:37:21.589Z,102114.22
2022-11-11T22:40:42.459Z,102109.91
2022-11-11T22:44:03.583Z,102114.16
2022-11-11T22:47:24.357Z,102109.88
2022-11-11T22:50:45.266Z,102103.78
2022-11-11T22:54:06.843Z,102102.03
2022-11-11T22:57:30.762Z,102106.31
2022-11-11T23:00:51.693Z,102102.88
2022-11-11T23:04:12.832Z,102106.31
2022-11-11T23:07:33.594Z,102099.44
2022-11-11T23:10:54.588Z,102093.44
2022-11-11T23:14:25.758Z,102091.66
2022-11-11T23:17:51.278Z,102083.81
2022-11-11T23:21:17.203Z,102080.38
2022-11-11T23:24:38.067Z,102075.13
2022-11-11T23:27:59.084Z,102081.16
2022-11-11T23:31:47.792Z,102084.56
2022-11-11T23:35:22.180Z,102078.56
2022-11-11T23:38:44.852Z,102078.63
2022-11-11T23:42:06.289Z,102080.31
2022-11-11T23:45:27.373Z,102076.03
2022-11-11T23:48:48.483Z,102076.91
2022-11-11T23:52:09.494Z,102080.31
2022-11-11T23:55:30.656Z,102076.84
2022-11-11T23:58:51.439Z,102081.03
